Time;durP1;ratioP1;P1;durP2;ratioP2;P2;SDS_P1;SDS_P2;PMS_P1;PMS_P2;Temp;Humidity;BMP_temperature;BMP_pressure;BME280_temperature;BME280_humidity;BME280_pressure;Samples;Min_cycle;Max_cycle;Signal;HPM_P1;HPM_P2
2021/07/02 00:00:20;;;;;;;16.23;5.55;;;15.30;99.90;;;;;;5078479;28;20031;-72
2021/07/02 00:02:46;;;;;;;16.40;5.18;;;15.30;99.90;;;;;;5075442;28;20859;-72
2021/07/02 00:05:13;;;;;;;9.82;4.47;;;15.30;99.90;;;;;;5076904;28;20044;-72
2021/07/02 00:07:38;;;;;;;12.40;4.38;;;15.30;99.90;;;;;;5057941;28;20054;-72
2021/07/02 00:10:06;;;;;;;13.23;5.47;;;15.30;99.90;;;;;;5076396;28;20064;-72
2021/07/02 00:12:32;;;;;;;10.88;4.40;;;15.30;99.90;;;;;;5077294;28;20210;-72
2021/07/02 00:14:58;;;;;;;17.80;5.13;;;15.30;99.90;;;;;;5061023;28;20032;-72
2021/07/02 00:17:23;;;;;;;10.18;4.53;;;15.30;99.90;;;;;;5060644;28;20065;-72
2021/07/02 00:19:49;;;;;;;21.23;5.45;;;15.40;99.90;;;;;;5077815;28;20388;-72
2021/07/02 00:22:15;;;;;;;15.05;5.45;;;15.40;99.90;;;;;;5083917;28;20055;-72
2021/07/02 00:24:40;;;;;;;15.35;5.80;;;15.40;99.90;;;;;;5071957;28;20591;-72
2021/07/02 00:27:06;;;;;;;14.15;4.95;;;15.40;99.90;;;;;;5072885;28;20025;-71
2021/07/02 00:29:31;;;;;;;14.00;4.63;;;15.40;99.90;;;;;;5079484;28;20032;-72
2021/07/02 00:31:57;;;;;;;15.45;4.85;;;15.40;99.90;;;;;;5059746;28;20025;-72
2021/07/02 00:34:23;;;;;;;12.75;5.30;;;15.30;99.90;;;;;;5060669;28;20132;-72
2021/07/02 00:36:48;;;;;;;11.95;4.90;;;15.40;99.90;;;;;;5078221;28;20511;-72
2021/07/02 00:39:14;;;;;;;14.63;3.85;;;15.40;99.90;;;;;;5058752;28;20059;-71
2021/07/02 00:41:40;;;;;;;15.90;5.40;;;15.40;99.90;;;;;;5072698;28;20029;-72
2021/07/02 00:44:06;;;;;;;12.93;5.68;;;15.40;99.90;;;;;;5076690;28;20078;-72
2021/07/02 00:46:31;;;;;;;15.10;5.57;;;15.40;99.90;;;;;;5076487;28;20037;-72
2021/07/02 00:48:57;;;;;;;13.68;5.35;;;15.40;99.90;;;;;;5062584;28;20071;-72
2021/07/02 00:51:23;;;;;;;14.80;5.68;;;15.30;99.90;;;;;;5051741;28;20045;-72
2021/07/02 00:53:48;;;;;;;16.15;5.43;;;15.40;99.90;;;;;;5060021;28;20043;-72
2021/07/02 00:56:19;;;;;;;12.52;4.68;;;15.40;99.90;;;;;;5078945;28;20032;-72
2021/07/02 00:58:45;;;;;;;11.88;4.80;;;15.30;99.90;;;;;;5082218;28;20032;-72
2021/07/02 01:01:15;;;;;;;12.20;4.82;;;15.30;99.90;;;;;;5080744;28;20044;-72
2021/07/02 01:03:45;;;;;;;10.20;5.18;;;15.40;99.90;;;;;;5065015;28;20439;-72
2021/07/02 01:06:12;;;;;;;12.18;4.60;;;15.40;99.90;;;;;;5062439;28;20113;-72
2021/07/02 01:08:39;;;;;;;13.35;4.53;;;15.40;99.90;;;;;;5083563;28;20040;-72
2021/07/02 01:11:05;;;;;;;15.68;4.43;;;15.40;99.90;;;;;;5076075;28;20058;-72
2021/07/02 01:13:30;;;;;;;11.38;4.65;;;15.30;99.90;;;;;;5084324;28;20041;-72
2021/07/02 01:15:56;;;;;;;13.63;5.22;;;15.40;99.90;;;;;;5064030;28;20028;-71
2021/07/02 01:18:22;;;;;;;17.45;4.90;;;15.30;99.90;;;;;;5079278;28;20052;-72
2021/07/02 01:20:53;;;;;;;16.65;4.57;;;15.30;99.90;;;;;;5081589;28;20025;-71
2021/07/02 01:23:18;;;;;;;;;;;15.30;99.90;;;;;;5078054;28;20035;-72
2021/07/02 01:25:45;;;;;;;15.40;4.88;;;15.30;99.90;;;;;;5080362;28;19916;-72
2021/07/02 01:28:11;;;;;;;17.80;4.90;;;15.30;99.90;;;;;;5083216;28;20021;-72
2021/07/02 01:30:37;;;;;;;10.93;4.32;;;15.30;99.90;;;;;;5083695;28;20067;-72
2021/07/02 01:33:03;;;;;;;15.15;4.95;;;15.40;99.90;;;;;;5074374;28;20169;-71
2021/07/02 01:35:28;;;;;;;14.18;4.53;;;15.30;99.90;;;;;;5062239;28;20028;-72
2021/07/02 01:37:54;;;;;;;16.77;6.40;;;15.30;99.90;;;;;;5081545;28;20039;-72
2021/07/02 01:40:20;;;;;;;12.55;4.60;;;15.30;99.90;;;;;;5080279;28;20058;-72
2021/07/02 01:42:46;;;;;;;12.63;4.60;;;15.30;99.90;;;;;;5083185;28;20046;-72
2021/07/02 01:45:12;;;;;;;13.88;4.82;;;15.30;99.90;;;;;;5081713;28;20043;-72
2021/07/02 01:47:38;;;;;;;12.63;4.97;;;15.30;99.90;;;;;;5061252;28;20037;-72
2021/07/02 01:50:06;;;;;;;13.32;4.85;;;15.30;99.90;;;;;;5078837;28;20056;-72
2021/07/02 01:52:31;;;;;;;14.18;4.53;;;15.30;99.90;;;;;;5069549;28;20032;-73
2021/07/02 01:54:57;;;;;;;10.10;4.50;;;15.20;99.90;;;;;;5078555;28;20028;-72
2021/07/02 01:57:26;;;;;;;15.55;5.05;;;15.30;99.90;;;;;;5061094;28;20062;-72
2021/07/02 01:59:52;;;;;;;13.02;4.93;;;15.20;99.90;;;;;;5081070;28;20052;-72
2021/07/02 02:02:18;;;;;;;14.13;5.32;;;15.30;99.90;;;;;;5080729;28;20051;-72
2021/07/02 02:04:44;;;;;;;14.13;5.10;;;15.20;99.90;;;;;;5078979;28;20036;-72
2021/07/02 02:07:10;;;;;;;13.45;4.82;;;15.30;99.90;;;;;;5081404;28;20105;-72
2021/07/02 02:09:35;;;;;;;11.20;4.75;;;15.30;99.90;;;;;;5060823;28;20036;-72
2021/07/02 02:12:01;;;;;;;11.23;5.35;;;15.30;99.90;;;;;;5081882;28;20430;-72
2021/07/02 02:14:27;;;;;;;19.25;4.68;;;15.30;99.90;;;;;;5060938;28;20044;-72
2021/07/02 02:16:53;;;;;;;12.95;4.38;;;15.30;99.90;;;;;;5058865;28;20036;-73
2021/07/02 02:19:19;;;;;;;13.73;4.55;;;15.30;99.90;;;;;;5079347;28;20066;-73
2021/07/02 02:21:45;;;;;;;14.68;4.60;;;15.30;99.90;;;;;;5079130;28;20072;-72
2021/07/02 02:24:11;;;;;;;11.65;4.22;;;15.30;99.90;;;;;;5059130;28;20048;-71
2021/07/02 02:26:36;;;;;;;11.02;4.18;;;15.30;99.90;;;;;;5077761;28;20083;-72
2021/07/02 02:29:03;;;;;;;12.70;4.53;;;15.30;99.90;;;;;;5081621;28;20032;-72
2021/07/02 02:31:29;;;;;;;17.40;4.78;;;15.20;99.90;;;;;;5074329;28;20054;-72
2021/07/02 02:33:54;;;;;;;11.05;4.43;;;15.30;99.90;;;;;;5078742;28;20116;-72
2021/07/02 02:36:20;;;;;;;7.45;3.72;;;15.20;99.90;;;;;;5079987;28;20104;-72
2021/07/02 02:38:46;;;;;;;12.82;4.30;;;15.20;99.90;;;;;;5062055;28;20189;-72
2021/07/02 02:41:11;;;;;;;12.32;4.43;;;15.30;99.90;;;;;;5061857;28;20048;-72
2021/07/02 02:43:37;;;;;;;9.52;3.75;;;15.30;99.90;;;;;;5079043;28;20048;-72
2021/07/02 02:46:03;;;;;;;10.98;4.70;;;15.30;99.90;;;;;;5080698;28;20039;-72
2021/07/02 02:48:29;;;;;;;12.75;4.57;;;15.30;99.90;;;;;;5077228;28;20135;-72
2021/07/02 02:50:55;;;;;;;11.80;5.22;;;15.20;99.90;;;;;;5078619;28;20105;-72
2021/07/02 02:53:20;;;;;;;18.98;5.20;;;15.30;99.90;;;;;;5080010;28;20036;-72
2021/07/02 02:55:46;;;;;;;14.43;4.88;;;15.20;99.90;;;;;;5063308;28;20036;-72
2021/07/02 02:58:11;;;;;;;9.73;4.45;;;15.20;99.90;;;;;;5079514;28;20493;-72
2021/07/02 03:00:37;;;;;;;13.27;6.43;;;15.20;99.90;;;;;;5077449;28;20031;-71
2021/07/02 03:03:03;;;;;;;14.00;6.50;;;15.20;99.90;;;;;;5080768;28;20058;-72
2021/07/02 03:05:29;;;;;;;17.65;6.03;;;15.20;99.90;;;;;;5059620;28;20480;-72
2021/07/02 03:07:55;;;;;;;16.40;5.80;;;15.30;99.90;;;;;;5080863;28;20024;-72
2021/07/02 03:10:22;;;;;;;11.40;4.68;;;15.30;99.90;;;;;;5080681;28;20028;-72
2021/07/02 03:12:47;;;;;;;15.48;5.88;;;15.20;99.90;;;;;;5081561;28;20041;-72
2021/07/02 03:15:15;;;;;;;12.18;5.60;;;15.20;99.90;;;;;;5080448;28;20039;-72
2021/07/02 03:17:42;;;;;;;13.85;5.88;;;15.20;99.90;;;;;;5061627;28;20040;-71
2021/07/02 03:20:11;;;;;;;19.15;5.47;;;15.30;99.90;;;;;;5077720;28;20032;-72
2021/07/02 03:22:38;;;;;;;14.20;5.60;;;15.30;99.90;;;;;;5080222;28;20484;-72
2021/07/02 03:25:05;;;;;;;15.88;5.35;;;15.30;99.90;;;;;;5077786;28;20766;-71
2021/07/02 03:27:31;;;;;;;15.07;5.50;;;15.20;99.90;;;;;;5080435;28;20039;-72
2021/07/02 03:29:57;;;;;;;12.40;5.53;;;15.20;99.90;;;;;;5080595;28;20032;-72
2021/07/02 03:32:22;;;;;;;11.75;5.45;;;15.20;99.90;;;;;;5076470;28;20081;-72
2021/07/02 03:34:48;;;;;;;13.43;5.43;;;15.20;99.90;;;;;;5078173;28;20027;-72
2021/07/02 03:37:15;;;;;;;13.27;5.38;;;15.30;99.90;;;;;;5078841;28;20063;-72
2021/07/02 03:39:41;;;;;;;15.55;5.15;;;15.30;99.90;;;;;;5063294;28;20028;-72
2021/07/02 03:42:07;;;;;;;18.90;5.55;;;15.30;99.90;;;;;;5077990;28;20039;-72
2021/07/02 03:44:32;;;;;;;18.73;5.95;;;15.30;99.90;;;;;;5075532;28;20570;-71
2021/07/02 03:46:58;;;;;;;11.05;5.78;;;15.30;99.90;;;;;;5058222;28;20075;-71
2021/07/02 03:49:24;;;;;;;15.48;5.15;;;15.30;99.90;;;;;;5077650;28;20112;-72
2021/07/02 03:51:49;;;;;;;15.73;5.45;;;15.40;99.90;;;;;;5079972;28;20043;-72
2021/07/02 03:54:15;;;;;;;13.65;5.40;;;15.30;99.90;;;;;;5080265;28;20020;-72
2021/07/02 03:57:10;;;;;;;16.35;5.55;;;15.30;99.90;;;;;;5078535;28;20039;-72
2021/07/02 03:59:26;;;;;;;13.15;6.10;;;15.40;99.90;;;;;;5073572;28;20402;-72
2021/07/02 04:01:52;;;;;;;16.55;5.75;;;15.40;99.90;;;;;;5077299;28;20039;-71
2021/07/02 04:04:17;;;;;;;12.10;5.45;;;15.30;99.90;;;;;;5079316;28;20074;-72
2021/07/02 04:06:43;;;;;;;14.13;6.65;;;15.30;99.90;;;;;;5060176;28;20123;-72
2021/07/02 04:09:08;;;;;;;15.02;5.55;;;15.30;99.90;;;;;;5078161;28;20611;-71
2021/07/02 04:11:34;;;;;;;11.05;5.30;;;15.30;99.90;;;;;;5075843;28;20110;-72
2021/07/02 04:13:59;;;;;;;15.90;5.65;;;15.30;99.90;;;;;;5080100;28;20656;-72
2021/07/02 04:16:25;;;;;;;11.23;5.22;;;15.40;99.90;;;;;;5058125;28;20549;-72
2021/07/02 04:18:51;;;;;;;16.70;5.75;;;15.40;99.90;;;;;;5081017;28;20688;-72
2021/07/02 04:21:16;;;;;;;10.68;5.03;;;15.40;99.90;;;;;;5079061;28;20587;-72
2021/07/02 04:23:42;;;;;;;17.98;5.60;;;15.40;99.90;;;;;;5078063;28;20048;-72
2021/07/02 04:26:07;;;;;;;10.95;5.15;;;15.40;99.90;;;;;;5073739;28;20032;-72
2021/07/02 04:28:33;;;;;;;17.05;6.18;;;15.40;99.90;;;;;;5074376;28;20037;-72
2021/07/02 04:30:58;;;;;;;12.90;5.22;;;15.40;99.90;;;;;;5081977;28;20066;-71
2021/07/02 04:33:24;;;;;;;15.63;6.22;;;15.40;99.90;;;;;;5062335;28;20048;-72
2021/07/02 04:35:50;;;;;;;18.38;5.63;;;15.40;99.90;;;;;;5080607;28;20476;-73
2021/07/02 04:38:15;;;;;;;18.48;6.05;;;15.40;99.90;;;;;;5083331;28;20035;-72
2021/07/02 04:40:41;;;;;;;13.13;5.63;;;15.50;99.90;;;;;;5079264;28;20063;-72
2021/07/02 04:43:06;;;;;;;14.57;4.57;;;15.50;99.90;;;;;;5082337;28;20028;-72
2021/07/02 04:45:32;;;;;;;15.32;5.57;;;15.50;99.90;;;;;;5062777;28;20109;-72
2021/07/02 04:47:57;;;;;;;13.02;5.00;;;15.50;99.90;;;;;;5061773;28;20025;-71
2021/07/02 04:50:23;;;;;;;15.13;5.55;;;15.50;99.90;;;;;;5082025;28;20122;-72
2021/07/02 04:52:49;;;;;;;15.68;5.55;;;15.50;99.90;;;;;;5083956;28;20039;-72
2021/07/02 04:55:14;;;;;;;12.60;5.50;;;15.50;99.90;;;;;;5080733;28;20041;-71
2021/07/02 04:57:40;;;;;;;15.32;5.57;;;15.50;99.90;;;;;;5063875;28;20040;-71
2021/07/02 05:00:06;;;;;;;16.05;6.18;;;15.50;99.90;;;;;;5064305;28;20036;-71
2021/07/02 05:02:32;;;;;;;13.45;5.50;;;15.40;99.90;;;;;;5062247;28;20033;-71
2021/07/02 05:04:58;;;;;;;16.92;5.97;;;15.40;99.90;;;;;;5082922;28;20036;-72
2021/07/02 05:07:23;;;;;;;18.92;6.28;;;15.30;99.90;;;;;;5080267;28;20033;-72
2021/07/02 05:09:50;;;;;;;9.77;4.88;;;15.20;99.90;;;;;;5056964;28;20089;-72
2021/07/02 05:12:15;;;;;;;13.23;5.70;;;15.20;99.90;;;;;;5080751;28;20032;-71
2021/07/02 05:14:41;;;;;;;15.55;6.07;;;15.10;99.90;;;;;;5083497;28;20044;-72
2021/07/02 05:17:06;;;;;;;15.85;5.70;;;15.10;99.90;;;;;;5081566;28;20488;-71
2021/07/02 05:19:32;;;;;;;16.85;6.30;;;15.10;99.90;;;;;;5063803;28;20101;-72
2021/07/02 05:21:58;;;;;;;15.35;5.75;;;15.20;99.90;;;;;;5079890;28;20024;-71
2021/07/02 05:24:23;;;;;;;20.05;6.47;;;15.20;99.90;;;;;;5079593;28;20041;-73
2021/07/02 05:26:49;;;;;;;16.40;6.25;;;15.20;99.90;;;;;;5079310;28;20479;-72
2021/07/02 05:29:15;;;;;;;17.17;6.32;;;15.20;99.90;;;;;;5082512;28;20113;-71
2021/07/02 05:31:40;;;;;;;17.88;6.88;;;15.30;99.90;;;;;;5061699;28;20140;-71
2021/07/02 05:34:06;;;;;;;16.83;6.82;;;15.30;99.90;;;;;;5065916;28;20032;-72
2021/07/02 05:36:32;;;;;;;17.15;6.13;;;15.40;99.90;;;;;;5062233;28;20136;-72
2021/07/02 05:38:57;;;;;;;13.65;6.72;;;15.40;99.90;;;;;;5081838;28;20032;-72
2021/07/02 05:41:23;;;;;;;18.63;6.90;;;15.50;99.90;;;;;;5082648;28;20036;-71
2021/07/02 05:43:49;;;;;;;15.80;6.00;;;15.50;99.90;;;;;;5060977;28;20158;-71
2021/07/02 05:46:15;;;;;;;17.88;7.03;;;15.40;99.90;;;;;;5082216;28;20028;-72
2021/07/02 05:48:41;;;;;;;14.55;6.32;;;15.50;99.90;;;;;;5079695;28;20035;-71
2021/07/02 05:51:06;;;;;;;18.00;6.28;;;15.50;99.90;;;;;;5063342;28;20036;-72
2021/07/02 05:53:32;;;;;;;17.83;6.25;;;15.50;99.90;;;;;;5078703;28;20483;-72
2021/07/02 05:55:57;;;;;;;15.30;5.85;;;15.50;99.90;;;;;;5079881;28;20504;-72
2021/07/02 05:58:23;;;;;;;14.65;5.90;;;15.60;99.90;;;;;;5073036;28;20032;-72
2021/07/02 06:00:49;;;;;;;17.00;6.63;;;15.70;99.90;;;;;;5073657;28;20035;-72
2021/07/02 06:03:14;;;;;;;21.35;7.22;;;15.70;99.90;;;;;;5072754;28;20036;-72
2021/07/02 06:05:40;;;;;;;18.85;7.20;;;15.80;99.90;;;;;;5075062;28;20035;-72
2021/07/02 06:08:06;;;;;;;21.02;6.75;;;15.80;99.90;;;;;;5072299;28;20442;-72
2021/07/02 06:10:31;;;;;;;16.10;5.90;;;15.90;99.90;;;;;;5059419;28;20041;-72
2021/07/02 06:12:57;;;;;;;15.55;6.65;;;15.90;99.90;;;;;;5070106;28;20037;-72
2021/07/02 06:15:23;;;;;;;16.58;5.85;;;15.90;99.90;;;;;;5054790;28;20519;-72
2021/07/02 06:17:50;;;;;;;15.93;6.80;;;16.00;99.90;;;;;;5053663;28;20041;-72
2021/07/02 06:20:17;;;;;;;13.52;5.72;;;16.00;99.90;;;;;;5054500;28;20035;-72
2021/07/02 06:22:43;;;;;;;15.68;6.57;;;16.10;99.90;;;;;;5073740;28;20031;-74
2021/07/02 06:25:11;;;;;;;11.25;5.80;;;16.20;99.90;;;;;;5073143;28;20359;-72
2021/07/02 06:27:37;;;;;;;13.05;5.82;;;16.30;99.90;;;;;;5073039;28;20032;-72
2021/07/02 06:30:05;;;;;;;17.13;6.18;;;16.30;99.90;;;;;;5079555;28;20048;-72
2021/07/02 06:32:30;;;;;;;10.75;5.63;;;16.30;99.90;;;;;;5078858;28;20128;-72
2021/07/02 06:34:56;;;;;;;18.40;6.18;;;16.30;99.90;;;;;;5075069;28;20156;-72
2021/07/02 06:37:21;;;;;;;16.90;6.30;;;16.30;99.90;;;;;;5057818;28;20036;-72
2021/07/02 06:39:47;;;;;;;11.57;5.68;;;16.40;99.90;;;;;;5080903;28;20032;-73
2021/07/02 06:42:12;;;;;;;16.75;6.55;;;16.40;99.90;;;;;;5063426;28;20036;-72
2021/07/02 06:44:38;;;;;;;11.43;6.00;;;16.40;99.90;;;;;;5061001;28;21379;-72
2021/07/02 06:47:04;;;;;;;17.45;6.40;;;16.40;99.90;;;;;;5080055;28;20032;-71
2021/07/02 06:49:30;;;;;;;13.00;5.93;;;16.40;99.90;;;;;;5062728;28;20451;-72
2021/07/02 06:51:55;;;;;;;11.88;6.15;;;16.50;99.90;;;;;;5051211;28;20032;-72
2021/07/02 06:54:21;;;;;;;11.98;5.78;;;16.50;99.90;;;;;;5072945;28;20559;-73
2021/07/02 06:57:02;;;;;;;16.55;6.53;;;16.40;99.90;;;;;;5073394;28;20128;-72
2021/07/02 06:59:33;;;;;;;13.63;6.18;;;16.40;99.90;;;;;;5069070;28;20162;-72
2021/07/02 07:02:00;;;;;;;13.57;6.55;;;16.30;99.90;;;;;;5073175;28;20659;-73
2021/07/02 07:04:35;;;;;;;13.75;5.90;;;16.40;99.90;;;;;;5072587;28;20051;-72
2021/07/02 07:07:05;;;;;;;13.68;6.38;;;16.30;99.90;;;;;;5072999;28;20111;-72
2021/07/02 07:09:31;;;;;;;12.45;5.50;;;16.40;99.90;;;;;;5051769;28;20036;-72
2021/07/02 07:11:58;;;;;;;13.57;6.28;;;16.40;99.90;;;;;;5073622;28;20511;-72
2021/07/02 07:14:23;;;;;;;12.43;5.88;;;16.40;99.90;;;;;;5055979;28;20755;-72
2021/07/02 07:16:49;;;;;;;12.23;5.72;;;16.40;99.90;;;;;;5075371;28;20082;-72
2021/07/02 07:19:15;;;;;;;10.77;5.47;;;16.40;99.90;;;;;;5068173;28;20098;-72
2021/07/02 07:21:41;;;;;;;9.82;4.93;;;16.40;99.90;;;;;;5075123;28;20039;-72
2021/07/02 07:24:06;;;;;;;9.02;5.13;;;16.40;99.90;;;;;;5065459;28;20068;-72
2021/07/02 07:26:33;;;;;;;10.73;5.25;;;16.50;99.90;;;;;;5072990;28;20107;-72
2021/07/02 07:28:58;;;;;;;12.43;5.38;;;16.60;99.90;;;;;;5074107;28;20052;-72
2021/07/02 07:31:24;;;;;;;10.23;5.82;;;16.50;99.90;;;;;;5069137;28;20028;-72
2021/07/02 07:33:52;;;;;;;12.60;5.13;;;16.60;99.90;;;;;;5075332;28;20036;-72
2021/07/02 07:36:20;;;;;;;12.43;5.45;;;16.50;99.90;;;;;;5055502;28;20039;-71
2021/07/02 07:38:45;;;;;;;10.88;5.50;;;16.60;99.90;;;;;;5072188;28;20064;-72
2021/07/02 07:41:11;;;;;;;11.93;5.57;;;16.50;99.90;;;;;;5051661;28;20056;-71
2021/07/02 07:43:37;;;;;;;12.80;5.65;;;16.60;99.90;;;;;;5069720;28;20458;-72
2021/07/02 07:46:06;;;;;;;9.93;5.88;;;16.60;99.90;;;;;;5070579;28;20430;-72
2021/07/02 07:48:32;;;;;;;11.90;6.00;;;16.60;99.90;;;;;;5067607;28;20044;-72
2021/07/02 07:53:42;;;;;;;10.63;5.05;;;16.70;99.90;;;;;;5059600;28;20094;-72
2021/07/02 07:56:08;;;;;;;12.40;5.75;;;16.70;99.90;;;;;;5070189;28;20036;-71
2021/07/02 07:58:33;;;;;;;13.48;5.57;;;16.70;99.90;;;;;;5069891;28;20143;-71
2021/07/02 08:00:59;;;;;;;12.20;5.78;;;16.70;99.90;;;;;;5070383;28;20036;-72
2021/07/02 08:03:24;;;;;;;13.50;6.07;;;16.70;99.90;;;;;;5075915;28;20028;-73
2021/07/02 08:05:50;;;;;;;13.00;6.75;;;16.60;99.90;;;;;;5069821;28;20032;-72
2021/07/02 08:08:16;;;;;;;12.40;6.05;;;16.60;99.90;;;;;;5056716;28;20033;-72
2021/07/02 08:10:43;;;;;;;14.07;6.43;;;16.70;99.90;;;;;;5079925;28;20506;-72
2021/07/02 08:13:08;;;;;;;13.38;6.35;;;16.70;99.90;;;;;;5077404;28;20507;-72
2021/07/02 08:15:34;;;;;;;11.55;5.70;;;16.70;99.90;;;;;;5074642;28;20166;-72
2021/07/02 08:18:00;;;;;;;13.13;5.95;;;16.70;99.90;;;;;;5075924;28;20296;-72
2021/07/02 08:20:26;;;;;;;13.20;6.22;;;16.60;99.90;;;;;;5069118;28;20073;-72
2021/07/02 08:22:51;;;;;;;11.25;5.40;;;16.60;99.90;;;;;;5048059;28;20043;-72
2021/07/02 08:25:17;;;;;;;13.15;6.28;;;16.60;99.90;;;;;;5071701;28;20028;-72
2021/07/02 08:30:27;;;;;;;12.35;5.95;;;16.60;99.90;;;;;;5078662;28;20462;-71
2021/07/02 08:32:53;;;;;;;12.90;5.97;;;16.70;99.90;;;;;;5077944;28;20028;-72
2021/07/02 08:35:21;;;;;;;11.95;6.75;;;16.70;99.90;;;;;;5077510;28;20413;-71
2021/07/02 08:37:48;;;;;;;14.10;6.15;;;16.70;99.90;;;;;;5077646;28;20029;-71
2021/07/02 08:40:15;;;;;;;13.68;6.10;;;16.70;99.90;;;;;;5059485;28;20041;-72
2021/07/02 08:42:40;;;;;;;12.45;5.40;;;16.70;99.90;;;;;;5076502;28;20086;-72
2021/07/02 08:45:06;;;;;;;14.95;5.45;;;16.80;99.90;;;;;;5079436;28;20056;-72
2021/07/02 08:47:32;;;;;;;13.18;6.03;;;16.80;99.90;;;;;;5077531;28;20040;-72
2021/07/02 08:49:59;;;;;;;12.43;6.35;;;16.80;99.90;;;;;;5074886;28;20035;-72
2021/07/02 08:52:24;;;;;;;13.40;5.82;;;16.90;99.90;;;;;;5077426;28;20029;-72
2021/07/02 08:54:50;;;;;;;15.50;5.45;;;16.90;99.90;;;;;;5060646;28;20032;-72
2021/07/02 08:57:15;;;;;;;11.40;6.15;;;17.00;99.90;;;;;;5076884;28;20135;-72
2021/07/02 08:59:41;;;;;;;13.30;6.30;;;17.10;99.90;;;;;;5080461;28;20048;-72
2021/07/02 09:02:32;;;;;;;10.88;5.82;;;17.10;99.90;;;;;;5072456;28;20029;-71
2021/07/02 09:05:18;;;;;;;10.88;5.60;;;17.20;99.90;;;;;;5070540;28;20028;-72
2021/07/02 09:07:44;;;;;;;10.95;5.05;;;17.20;99.90;;;;;;5055520;28;20024;-72
2021/07/02 09:10:09;;;;;;;11.30;5.20;;;17.10;99.90;;;;;;5073245;28;20098;-71
2021/07/02 09:12:35;;;;;;;10.88;5.30;;;17.20;99.90;;;;;;5075351;28;20038;-73
2021/07/02 09:15:13;;;;;;;13.07;6.25;;;17.30;99.90;;;;;;5076347;28;20263;-72
2021/07/02 09:17:51;;;;;;;11.48;5.72;;;17.40;99.90;;;;;;5055585;28;20107;-72
2021/07/02 09:20:25;;;;;;;12.48;5.38;;;17.70;99.90;;;;;;5081549;28;20505;-71
2021/07/02 09:22:59;;;;;;;10.27;5.32;;;17.90;99.90;;;;;;5081432;28;20037;-72
2021/07/02 09:25:47;;;;;;;10.65;5.15;;;18.20;99.90;;;;;;5081690;28;20028;-71
2021/07/02 09:28:15;;;;;;;10.52;5.35;;;18.30;99.90;;;;;;5077525;28;20045;-71
2021/07/02 09:30:46;;;;;;;15.13;6.68;;;18.50;99.90;;;;;;5083697;28;20399;-71
2021/07/02 09:33:14;;;;;;;17.48;7.30;;;18.40;99.90;;;;;;5080003;28;20158;-72
2021/07/02 09:35:50;;;;;;;16.98;7.47;;;18.30;99.90;;;;;;5084197;28;20039;-72
2021/07/02 09:38:17;;;;;;;16.40;7.47;;;18.20;99.90;;;;;;5062863;28;20029;-72
2021/07/02 09:40:45;;;;;;;15.48;7.00;;;18.10;99.90;;;;;;5061185;28;20061;-71
2021/07/02 09:43:13;;;;;;;17.08;6.75;;;18.00;99.90;;;;;;5083057;28;20032;-72
2021/07/02 09:46:02;;;;;;;17.23;6.30;;;18.00;99.90;;;;;;5083161;28;20039;-72
2021/07/02 09:48:30;;;;;;;13.30;6.68;;;18.00;99.90;;;;;;5080221;28;20036;-72
2021/07/02 09:50:57;;;;;;;18.40;6.68;;;18.00;99.90;;;;;;5081258;28;20037;-72
2021/07/02 09:53:32;;;;;;;13.77;6.13;;;18.00;99.90;;;;;;5062169;28;20408;-71
2021/07/02 09:56:01;;;;;;;17.15;7.25;;;18.00;99.90;;;;;;5082345;28;20043;-72
2021/07/02 09:58:35;;;;;;;13.80;6.80;;;17.90;99.90;;;;;;5062180;28;20202;-72
2021/07/02 10:01:02;;;;;;;16.15;7.35;;;17.80;99.90;;;;;;5083038;28;20399;-71
2021/07/02 10:03:29;;;;;;;12.80;5.70;;;17.70;99.90;;;;;;5082501;28;21703;-72
2021/07/02 10:06:01;;;;;;;14.23;6.57;;;17.80;99.90;;;;;;5080657;28;20198;-72
2021/07/02 10:08:38;;;;;;;14.38;6.00;;;18.00;99.90;;;;;;5047105;28;20065;-73
2021/07/02 10:11:06;;;;;;;12.30;6.03;;;18.10;99.90;;;;;;5075966;28;20496;-72
2021/07/02 10:13:37;;;;;;;14.73;6.85;;;18.30;99.90;;;;;;5078922;28;20024;-72
2021/07/02 10:16:07;;;;;;;17.30;7.03;;;18.50;99.90;;;;;;5057120;28;20056;-72
2021/07/02 10:18:37;;;;;;;12.30;6.00;;;18.60;99.90;;;;;;5074936;28;20028;-72
2021/07/02 10:21:05;;;;;;;13.98;6.53;;;18.80;99.90;;;;;;5079608;28;20077;-71
2021/07/02 10:23:36;;;;;;;15.82;6.18;;;19.00;99.90;;;;;;5078750;28;20040;-72
2021/07/02 10:26:05;;;;;;;12.98;6.30;;;19.20;99.90;;;;;;5075166;28;20123;-72
2021/07/02 10:28:31;;;;;;;13.40;6.18;;;19.30;99.90;;;;;;5081142;28;20055;-72
2021/07/02 10:30:57;;;;;;;9.20;4.80;;;19.30;99.90;;;;;;5080076;28;20130;-71
2021/07/02 10:33:25;;;;;;;11.27;5.38;;;19.40;99.90;;;;;;5081518;28;20065;-72
2021/07/02 10:36:02;;;;;;;11.50;5.35;;;19.40;99.90;;;;;;5061229;28;20052;-71
2021/07/02 10:38:37;;;;;;;12.82;5.70;;;19.50;99.90;;;;;;5081956;28;20491;-73
2021/07/02 10:41:15;;;;;;;10.70;5.55;;;19.50;99.90;;;;;;5077353;28;20035;-71
2021/07/02 10:44:05;;;;;;;9.35;5.10;;;19.30;99.90;;;;;;5080391;28;20043;-71
2021/07/02 10:46:59;;;;;;;12.05;4.90;;;19.30;99.90;;;;;;5074323;28;20044;-72
2021/07/02 10:49:39;;;;;;;11.23;4.82;;;19.20;99.90;;;;;;5060209;28;20043;-72
2021/07/02 10:52:21;;;;;;;10.10;5.10;;;19.10;99.90;;;;;;5075520;28;20027;-72
2021/07/02 10:54:50;;;;;;;10.38;4.88;;;19.00;99.90;;;;;;5072723;28;20060;-72
2021/07/02 10:57:18;;;;;;;13.60;5.60;;;19.00;99.90;;;;;;5080730;28;20111;-71
2021/07/02 10:59:50;;;;;;;14.90;6.10;;;19.10;99.90;;;;;;5068456;28;20083;-71
2021/07/02 11:02:20;;;;;;;11.57;4.93;;;19.10;99.90;;;;;;5079097;28;20098;-71
2021/07/02 11:04:50;;;;;;;12.07;5.85;;;19.00;99.90;;;;;;5076560;28;20040;-72
2021/07/02 11:07:15;;;;;;;16.02;5.18;;;19.20;99.90;;;;;;5077922;28;20419;-72
2021/07/02 11:09:50;;;;;;;15.48;6.03;;;19.20;99.90;;;;;;5078092;28;20048;-72
2021/07/02 11:12:18;;;;;;;8.68;4.45;;;19.30;99.90;;;;;;5079887;28;20502;-72
2021/07/02 11:15:01;;;;;;;12.38;5.38;;;19.40;99.90;;;;;;5060586;28;20040;-72
2021/07/02 11:17:33;;;;;;;10.38;3.90;;;19.60;99.90;;;;;;5077729;28;20036;-72
2021/07/02 11:20:13;;;;;;;10.55;4.45;;;19.70;99.90;;;;;;5055720;28;20055;-71
2021/07/02 11:22:40;;;;;;;;;;;19.90;99.90;;;;;;5058678;28;20051;-71
2021/07/02 11:25:19;;;;;;;5.93;2.88;;;20.10;99.90;;;;;;5081314;28;20378;-72
2021/07/02 11:27:50;;;;;;;5.33;2.00;;;20.50;99.90;;;;;;5079453;28;20488;-72
2021/07/02 11:30:22;;;;;;;6.18;1.85;;;20.70;99.90;;;;;;5079961;28;20369;-72
2021/07/02 11:32:53;;;;;;;5.15;3.17;;;21.10;99.90;;;;;;5060237;28;20505;-72
2021/07/02 11:35:22;;;;;;;6.78;2.15;;;21.30;99.90;;;;;;5079998;28;20036;-72
2021/07/02 11:38:00;;;;;;;4.18;2.28;;;21.50;99.90;;;;;;5060643;28;20032;-72
2021/07/02 11:40:30;;;;;;;4.18;2.25;;;21.60;99.90;;;;;;5059691;28;20037;-73
2021/07/02 11:42:57;;;;;;;5.95;2.70;;;21.70;99.90;;;;;;5081720;28;20261;-72
2021/07/02 11:45:45;;;;;;;9.35;2.60;;;21.90;99.90;;;;;;5080009;28;20028;-72
2021/07/02 11:48:20;;;;;;;4.82;2.35;;;22.10;99.90;;;;;;5057631;28;20040;-71
2021/07/02 11:50:49;;;;;;;4.20;2.20;;;22.10;99.90;;;;;;5079415;28;20325;-72
2021/07/02 11:53:35;;;;;;;4.80;2.33;;;22.30;99.90;;;;;;5079530;28;20039;-71
2021/07/02 11:56:02;;;;;;;5.15;2.72;;;22.50;99.90;;;;;;5077676;28;20119;-71
2021/07/02 11:58:30;;;;;;;4.60;2.63;;;22.60;99.90;;;;;;5077425;28;20040;-72
2021/07/02 12:00:58;;;;;;;5.80;2.50;;;22.70;99.90;;;;;;5059159;28;20032;-71
2021/07/02 12:03:24;;;;;;;6.07;2.33;;;22.80;99.90;;;;;;5080677;28;20035;-72
2021/07/02 12:06:01;;;;;;;7.38;2.80;;;22.80;99.90;;;;;;5077501;28;20033;-72
2021/07/02 12:08:28;;;;;;;9.00;3.35;;;22.90;99.90;;;;;;5074639;28;20066;-72
2021/07/02 12:10:59;;;;;;;6.35;3.10;;;22.90;99.90;;;;;;5059472;28;20385;-72
2021/07/02 12:13:26;;;;;;;7.40;3.00;;;22.70;99.90;;;;;;5057646;28;20028;-71
2021/07/02 12:16:17;;;;;;;9.25;3.70;;;22.60;99.90;;;;;;5059478;28;20028;-71
2021/07/02 12:18:43;;;;;;;10.68;3.67;;;22.50;99.90;;;;;;5070665;28;20039;-72
2021/07/02 12:21:12;;;;;;;3.60;1.67;;;22.30;99.90;;;;;;5062750;28;20067;-72
2021/07/02 12:23:41;;;;;;;7.15;2.80;;;22.10;99.90;;;;;;5061393;28;20073;-71
2021/07/02 12:26:21;;;;;;;4.82;2.53;;;22.20;99.90;;;;;;5077948;28;20402;-71
2021/07/02 12:29:09;;;;;;;10.32;3.63;;;22.40;99.90;;;;;;5079715;28;20040;-72
2021/07/02 12:31:52;;;;;;;7.78;3.08;;;22.70;99.90;;;;;;5053431;28;20047;-71
2021/07/02 12:34:22;;;;;;;8.30;4.00;;;22.90;99.90;;;;;;5054121;28;20039;-71
2021/07/02 12:37:08;;;;;;;7.15;3.10;;;22.90;99.90;;;;;;5071374;28;20028;-71
2021/07/02 12:39:37;;;;;;;7.25;3.60;;;22.80;99.90;;;;;;5067450;28;20496;-73
2021/07/02 12:42:12;;;;;;;6.68;3.03;;;22.70;99.90;;;;;;5075133;28;20589;-72
2021/07/02 12:44:41;;;;;;;6.75;3.38;;;22.60;99.90;;;;;;5051595;28;20045;-72
2021/07/02 12:47:08;;;;;;;8.95;4.25;;;22.60;99.90;;;;;;5075106;28;20028;-72